Airfield :
LOGIN :

Register | Disclaimer

   EN    FR    IT 

 










Legend :    VFR   Marginal VFR   IFR   Intensive IFR   Very Intensive IFR
Visi :
Ceiling :
>= 8 km
>= 3000ft
5 to 8 km
1000 to 3000 ft
1500m to 5 km
500 to 1000 ft
800 to 1500m
200 to 500 ft
< 800m
< 200 ft
Symbols :   Thunderstorms  Fog  Heavy snow  Heavy precipitations  Wind > 20 kt
SIGMETs :     Misc.  Thunderstorms  Icing  Turbulence  Mountain Waves  Volcanic Ashes







- Airport Elevation : 228 ft
- IATA code : OPO


LPPR - Porto Fr. Sa Carneiro

CURRENT METAR :
  • 100100Z VRB01KT CAVOK 10/08 Q1030

EXPIRED METARs :
  • 100030Z 04004KT CAVOK 12/09 Q1030
  • 100000Z 04004KT CAVOK 12/09 Q1030
  • 092330Z 07004KT 9000 NSC 12/12 Q1030
  • 092300Z 06004KT 9000 NSC 11/11 Q1030
  • 092230Z VRB02KT 6000 BCFG FEW002 10/10 Q1030

TAF TAF LPPR
Valid from the 10 at 00:00 until the 11 at 00:00 UTC


092300Z 1000/1024 06005KT CAVOK
BECMG 1004/1007 09010KT
No reported NOTAMs for that airfield.



MET'MAP, your aeronautical weather chart ! - Copyright ORBIFLY December 2007 - Disclaimer

ORBIFLY MET'MAP TEAM :

Programming & Development : Alexandra Zaïnal
Concept & Development : Baudouin d'Aumeries
Co-Development & Prog : Marc-Olivier Méhu
Technical & hardware support : Manuel Goepfert

Contact : metmap@orbifly.com




SOURCES & CREDITS :

   NOAA